createdAt,value
2018-09-24T00:00:52.055Z,47.74
2018-09-24T00:15:50.434Z,47.57
2018-09-24T00:30:50.446Z,48.01
2018-09-24T00:45:51.078Z,48.64
2018-09-24T01:00:50.844Z,48.07
2018-09-24T01:15:52.833Z,48.60
2018-09-24T01:30:52.183Z,48.88
2018-09-24T01:45:51.177Z,48.93
2018-09-24T02:00:50.054Z,48.20
2018-09-24T02:15:52.086Z,48.24
2018-09-24T02:30:50.183Z,48.16
2018-09-24T02:45:50.244Z,49.03
2018-09-24T03:00:50.793Z,48.48
2018-09-24T03:15:59.164Z,49.20
2018-09-24T03:30:50.995Z,49.54
2018-09-24T03:45:50.575Z,48.73
2018-09-24T04:00:51.468Z,48.67
2018-09-24T04:15:55.937Z,48.39
2018-09-24T04:30:56.211Z,51.86
2018-09-24T04:45:55.970Z,55.60
2018-09-24T05:00:56.505Z,57.86
2018-09-24T05:30:56.611Z,51.27
2018-09-24T05:45:56.495Z,49.61
2018-09-24T06:00:55.757Z,47.45
2018-09-24T06:15:55.861Z,44.62
2018-09-24T06:30:56.311Z,43.29
2018-09-24T06:45:55.865Z,42.46
2018-09-24T07:00:58.059Z,41.17
2018-09-24T07:15:56.193Z,39.28
2018-09-24T07:30:56.005Z,38.83
2018-09-24T07:45:56.051Z,39.02
2018-09-24T08:00:56.524Z,37.56
2018-09-24T08:15:56.437Z,36.34
2018-09-24T08:31:00.308Z,36.58
2018-09-24T08:45:56.597Z,34.59
2018-09-24T09:00:55.724Z,34.31
2018-09-24T09:15:55.713Z,32.84
2018-09-24T09:30:55.847Z,32.75
2018-09-24T09:45:55.849Z,33.36
2018-09-24T10:00:56.263Z,30.68
2018-09-24T10:15:56.095Z,28.10
2018-09-24T10:30:56.100Z,27.24
2018-09-24T10:45:56.458Z,30.44
2018-09-24T11:15:56.493Z,28.22
2018-09-24T11:30:57.001Z,27.83
2018-09-24T11:45:56.372Z,29.25
2018-09-24T12:00:58.263Z,35.67
2018-09-24T12:15:55.808Z,37.15
2018-09-24T12:30:55.710Z,39.32
2018-09-24T12:45:56.040Z,40.24
2018-09-24T13:00:56.159Z,40.08
2018-09-24T13:15:56.304Z,41.43
2018-09-24T13:30:56.388Z,40.56
2018-09-24T13:45:56.157Z,43.27
2018-09-24T14:00:56.445Z,45.47
2018-09-24T14:30:56.678Z,56.99
2018-09-24T14:45:58.720Z,45.67
2018-09-24T15:00:57.800Z,47.36
2018-09-24T16:30:56.164Z,53.34
2018-09-24T16:45:56.187Z,56.05
2018-09-24T17:00:57.453Z,52.93
2018-09-24T17:15:56.511Z,53.89
2018-09-24T17:45:56.650Z,54.99
2018-09-24T18:00:55.922Z,54.45
2018-09-24T18:15:55.946Z,54.48
2018-09-24T18:30:55.905Z,54.65
2018-09-24T18:45:55.717Z,55.36
2018-09-24T19:00:58.218Z,56.21
2018-09-24T19:15:58.174Z,56.44
2018-09-24T19:30:57.703Z,56.32
2018-09-24T19:45:56.248Z,55.96
2018-09-24T20:00:56.492Z,55.83
2018-09-24T20:15:56.534Z,55.89
2018-09-24T20:30:58.725Z,61.09
2018-09-24T20:45:56.503Z,61.22
2018-09-24T21:00:55.837Z,62.65
2018-09-24T21:15:55.835Z,62.52
2018-09-24T21:30:55.827Z,61.17
2018-09-24T21:45:55.872Z,60.08
2018-09-24T22:00:58.193Z,58.90
2018-09-24T22:15:57.255Z,59.09
2018-09-24T22:30:58.454Z,58.88
2018-09-24T22:45:55.990Z,58.72
2018-09-24T23:00:56.377Z,58.24
2018-09-24T23:15:56.434Z,57.76
2018-09-24T23:30:56.491Z,57.02
2018-09-24T23:45:56.422Z,56.50
